Villa Aida, Puerto Rico
Current Conditions -  °F | °C
As of 9:50 AM on Friday 24 Oct 2014 (Local Time) from TJBQ Reporting Station
Clear Clear  
Wind Chill: 84°   Ceiling: Unl
Heat Index: 91°   Visibility: 10mi
Dew Point: 73°   Wind: 8mph
Humidity: 70%   Direction: 130°SE
Pressure: 29.97"   Gusts: NA
Location:  18.0849°N, 67.1633°W
Report Text: TJBQ 241350Z 13007KT 10SM SKC 29/23 A2997 RMK RWY08 - ATIS T
Loading
Personal Weather Stations






























Interactive Weather Map
Tropical Storm Tracking
New forecast layout! Learn more

10-Day Weather Forecast

Advertisements
Track Severe Weather on mobile